Time;durP1;ratioP1;P1;durP2;ratioP2;P2;SDS_P1;SDS_P2;PMS_P1;PMS_P2;Temp;Humidity;BMP_temperature;BMP_pressure;BME280_temperature;BME280_humidity;BME280_pressure;Samples;Min_cycle;Max_cycle;Signal;HPM_P1;HPM_P2
2022/12/03 00:01:14;;;;;;;99.40;43.10;;;;;;;-0.71;100.00;98786.30;1711905;83;20901;-77
2022/12/03 00:03:40;;;;;;;96.80;41.13;;;;;;;-0.73;100.00;98789.66;1729813;83;20967;-77
2022/12/03 00:06:06;;;;;;;102.87;49.48;;;;;;;-0.78;100.00;98780.89;1730146;83;20967;-77
2022/12/03 00:08:32;;;;;;;103.60;48.15;;;;;;;-0.79;100.00;98783.23;1729790;83;21008;-77
2022/12/03 00:10:58;;;;;;;101.30;43.78;;;;;;;-0.80;100.00;98785.59;1730043;83;21847;-80
2022/12/03 00:13:24;;;;;;;81.32;38.90;;;;;;;-0.78;100.00;98788.87;1729935;82;20967;-77
2022/12/03 00:15:50;;;;;;;87.65;38.33;;;;;;;-0.76;100.00;98782.06;1729983;83;21569;-80
2022/12/03 00:18:15;;;;;;;91.40;40.33;;;;;;;-0.75;100.00;98784.53;1729957;83;20955;-80
2022/12/03 00:20:41;;;;;;;82.55;35.90;;;;;;;-0.74;100.00;98785.35;1730146;83;21066;-80
2022/12/03 00:23:07;;;;;;;80.95;34.50;;;;;;;-0.71;100.00;98787.63;1729857;82;21161;-80
2022/12/03 00:25:33;;;;;;;82.08;37.78;;;;;;;-0.74;100.00;98787.50;1729968;83;20912;-80
2022/12/03 00:27:59;;;;;;;84.72;40.35;;;;;;;-0.76;100.00;98786.88;1730269;83;20905;-77
2022/12/03 00:30:25;;;;;;;81.35;38.80;;;;;;;-0.74;100.00;98789.34;1729897;83;20862;-77
2022/12/03 00:32:51;;;;;;;90.80;39.63;;;;;;;-0.73;100.00;98784.34;1707752;84;22001;-79
2022/12/03 00:35:17;;;;;;;81.20;40.30;;;;;;;-0.73;100.00;98783.00;1729885;82;21329;-80
2022/12/03 00:37:43;;;;;;;77.08;36.45;;;;;;;-0.72;100.00;98782.81;1707651;84;21647;-77
2022/12/03 00:40:10;;;;;;;85.00;40.52;;;;;;;-0.72;100.00;98776.16;1729608;82;20877;-79
2022/12/03 00:42:36;;;;;;;81.25;35.68;;;;;;;-0.73;100.00;98785.16;1707856;83;21029;-80
2022/12/03 00:45:02;;;;;;;85.12;36.95;;;;;;;-0.70;100.00;98791.42;1729704;82;20865;-77
2022/12/03 00:47:28;;;;;;;88.42;39.75;;;;;;;-0.72;100.00;98781.98;1707799;83;21923;-77
2022/12/03 00:49:54;;;;;;;86.45;39.65;;;;;;;-0.77;100.00;98777.25;1729788;82;21479;-77
2022/12/03 00:52:20;;;;;;;75.05;35.00;;;;;;;-0.76;100.00;98778.89;1707871;84;21639;-77
2022/12/03 00:54:45;;;;;;;80.90;40.17;;;;;;;-0.75;100.00;98783.70;1729689;82;20881;-79
2022/12/03 00:57:11;;;;;;;86.65;39.65;;;;;;;-0.77;100.00;98779.05;1707918;84;21567;-77
2022/12/03 00:59:37;;;;;;;89.62;40.43;;;;;;;-0.76;100.00;98774.90;1729788;82;21156;-77
2022/12/03 01:02:03;;;;;;;78.95;37.00;;;;;;;-0.74;100.00;98776.86;1713804;83;20950;-80
2022/12/03 01:04:29;;;;;;;69.32;34.10;;;;;;;-0.72;100.00;98771.34;1716088;83;20879;-77
2022/12/03 01:06:55;;;;;;;69.65;32.40;;;;;;;-0.72;100.00;98777.48;1716220;83;20882;-80
2022/12/03 01:09:21;;;;;;;73.52;34.85;;;;;;;-0.70;100.00;98773.30;1715947;83;20962;-79
2022/12/03 01:11:47;;;;;;;76.12;36.30;;;;;;;-0.72;100.00;98774.83;1716319;83;21150;-80
2022/12/03 01:14:16;;;;;;;81.97;37.20;;;;;;;-0.77;100.00;98771.06;1716004;83;20854;-77
2022/12/03 01:16:42;;;;;;;76.95;34.85;;;;;;;-0.79;100.00;98766.45;1716253;83;21064;-80
2022/12/03 01:19:09;;;;;;;86.67;37.45;;;;;;;-0.79;100.00;98770.44;1716021;83;20886;-77
2022/12/03 01:21:36;;;;;;;73.20;34.85;;;;;;;-0.77;100.00;98775.06;1689819;83;21009;-80
2022/12/03 01:24:02;;;;;;;83.87;36.75;;;;;;;-0.77;100.00;98781.23;1715861;83;21131;-77
2022/12/03 01:26:28;;;;;;;74.30;35.98;;;;;;;-0.76;100.00;98777.56;1716089;83;21482;-80
2022/12/03 01:28:54;;;;;;;77.27;36.08;;;;;;;-0.80;100.00;98775.45;1716023;83;20997;-77
2022/12/03 01:34:04;;;;;;;84.45;36.83;;;;;;;-0.83;100.00;98770.52;1721771;83;21474;-77
2022/12/03 01:36:30;;;;;;;79.77;35.78;;;;;;;-0.82;100.00;98770.83;1702481;84;21026;-80
2022/12/03 01:38:56;;;;;;;73.22;34.67;;;;;;;-0.81;100.00;98765.31;1721607;83;20933;-80
2022/12/03 01:41:22;;;;;;;71.60;31.82;;;;;;;-0.80;100.00;98766.13;1702519;84;20969;-77
2022/12/03 01:43:49;;;;;;;69.65;31.75;;;;;;;-0.83;100.00;98766.02;1694894;83;21943;-80
2022/12/03 01:46:18;;;;;;;74.70;32.67;;;;;;;-0.81;100.00;98767.16;1702198;84;20994;-77
2022/12/03 01:48:44;;;;;;;79.12;35.10;;;;;;;-0.86;100.00;98761.05;1721763;83;21429;-77
2022/12/03 01:51:12;;;;;;;77.45;31.97;;;;;;;-0.86;100.00;98761.88;1702674;84;21050;-81
2022/12/03 01:53:38;;;;;;;72.35;31.10;;;;;;;-0.83;100.00;98771.84;1721549;83;21017;-77
2022/12/03 01:56:04;;;;;;;71.50;30.57;;;;;;;-0.89;100.00;98776.89;1702482;84;20887;-79
2022/12/03 01:58:30;;;;;;;79.30;36.17;;;;;;;-0.92;100.00;98775.13;1721733;83;21017;-77
2022/12/03 02:00:58;;;;;;;79.60;33.45;;;;;;;-0.95;100.00;98774.16;1704897;83;21960;-77
2022/12/03 02:03:25;;;;;;;78.30;33.95;;;;;;;-0.93;100.00;98768.16;1713212;83;20984;-77
2022/12/03 02:05:51;;;;;;;77.65;33.80;;;;;;;-0.92;100.00;98766.64;1713074;83;21027;-80
2022/12/03 02:08:33;;;;;;;70.32;32.35;;;;;;;-0.92;100.00;98761.83;1713186;83;21039;-80
2022/12/03 02:11:09;;;;;;;74.15;32.80;;;;;;;-0.90;100.00;98765.94;1712992;83;20991;-81
2022/12/03 02:13:35;;;;;;;84.32;37.58;;;;;;;-0.92;100.00;98755.99;1712834;83;21304;-77
2022/12/03 02:16:02;;;;;;;65.80;32.25;;;;;;;-0.96;100.00;98752.05;1712982;83;20975;-79
2022/12/03 02:18:28;;;;;;;76.77;34.45;;;;;;;-0.95;100.00;98758.19;1713222;83;21007;-77
2022/12/03 02:21:18;;;;;;;73.45;32.55;;;;;;;-0.97;100.00;98761.05;1684571;83;21293;-77
2022/12/03 02:24:10;;;;;;;81.02;33.83;;;;;;;-0.99;100.00;98761.74;1713094;83;20995;-77
2022/12/03 02:26:36;;;;;;;75.20;31.77;;;;;;;-1.00;100.00;98766.75;1713075;83;21115;-80
2022/12/03 02:29:02;;;;;;;80.72;33.75;;;;;;;-1.00;100.00;98765.42;1713101;83;21554;-77
2022/12/03 02:31:28;;;;;;;66.60;31.65;;;;;;;-1.01;100.00;98765.61;1689312;83;20855;-80
2022/12/03 02:33:54;;;;;;;89.77;39.10;;;;;;;-1.07;100.00;98765.84;1687692;85;21539;-80
2022/12/03 02:36:20;;;;;;;83.03;38.17;;;;;;;-1.07;100.00;98766.35;1687894;85;20866;-77
2022/12/03 02:38:46;;;;;;;85.97;41.45;;;;;;;-1.11;100.00;98761.07;1687756;84;21610;-79
2022/12/03 02:42:33;;;;;;;90.30;38.20;;;;;;;-1.08;100.00;98763.38;1687675;85;20869;-77
2022/12/03 02:43:41;;;;;;;;;;;;;;;-1.10;100.00;98759.58;1685980;85;21445;-80
2022/12/03 02:46:07;;;;;;;74.65;30.43;;;;;;;-1.17;100.00;98756.84;1687690;84;20217;-77
2022/12/03 02:48:35;;;;;;;77.85;32.80;;;;;;;-1.23;100.00;98748.77;1687797;84;20957;-77
2022/12/03 02:51:04;;;;;;;72.40;32.80;;;;;;;-1.26;100.00;98742.50;1687827;84;21071;-80
2022/12/03 02:53:37;;;;;;;78.65;37.03;;;;;;;-1.35;100.00;98735.14;1687740;85;20997;-80
2022/12/03 02:56:04;;;;;;;81.47;35.10;;;;;;;-1.34;100.00;98745.27;1687560;84;21001;-80
2022/12/03 02:58:31;;;;;;;79.20;34.55;;;;;;;-1.34;100.00;98747.42;1687866;84;21029;-77
2022/12/03 03:00:57;;;;;;;75.52;36.85;;;;;;;-1.32;100.00;98756.03;1695186;83;20992;-77
2022/12/03 03:03:24;;;;;;;81.72;37.83;;;;;;;-1.28;100.00;98749.34;1742798;82;21139;-77
2022/12/03 03:05:50;;;;;;;87.45;39.78;;;;;;;-1.27;100.00;98750.98;1742578;82;21014;-77
2022/12/03 03:08:15;;;;;;;88.72;41.18;;;;;;;-1.25;100.00;98752.13;1742930;82;20970;-77
2022/12/03 03:10:41;;;;;;;76.42;34.23;;;;;;;-1.28;100.00;98752.48;1742752;82;21612;-76
2022/12/03 03:13:13;;;;;;;64.85;32.70;;;;;;;-1.30;100.00;98745.20;1742884;82;20879;-77
2022/12/03 03:15:39;;;;;;;72.27;32.23;;;;;;;-1.33;100.00;98746.41;1714032;82;21143;-77
2022/12/03 03:18:06;;;;;;;76.55;33.53;;;;;;;-1.35;100.00;98746.28;1742767;82;20880;-77
2022/12/03 03:20:32;;;;;;;78.37;39.42;;;;;;;-1.40;100.00;98752.65;1742670;82;21462;-80
2022/12/03 03:23:17;;;;;;;79.10;35.10;;;;;;;-1.42;100.00;98749.67;1742758;82;20950;-77
2022/12/03 03:25:46;;;;;;;77.75;33.30;;;;;;;-1.42;100.00;98750.18;1742700;82;21014;-79
2022/12/03 03:28:12;;;;;;;75.45;36.00;;;;;;;-1.45;100.00;98753.22;1742654;82;21499;-77
2022/12/03 03:30:38;;;;;;;91.55;40.23;;;;;;;-1.48;100.00;98758.37;1703189;83;21283;-80
2022/12/03 03:33:04;;;;;;;89.15;39.25;;;;;;;-1.46;100.00;98759.52;1706826;84;21449;-77
2022/12/03 03:35:30;;;;;;;87.35;41.10;;;;;;;-1.46;100.00;98753.70;1710778;83;20858;-79
2022/12/03 03:37:57;;;;;;;97.92;45.00;;;;;;;-1.46;100.00;98747.55;1706981;83;22372;-77
2022/12/03 03:40:23;;;;;;;84.65;38.48;;;;;;;-1.47;100.00;98751.23;1710983;83;21407;-80
2022/12/03 03:42:49;;;;;;;77.25;40.17;;;;;;;-1.48;100.00;98754.39;1706769;83;21002;-77
2022/12/03 03:45:15;;;;;;;79.67;41.30;;;;;;;-1.49;100.00;98751.92;1710954;83;21017;-79
2022/12/03 03:47:41;;;;;;;84.72;38.13;;;;;;;-1.54;100.00;98747.66;1706941;84;21481;-80
2022/12/03 03:50:08;;;;;;;87.10;41.08;;;;;;;-1.54;100.00;98749.84;1710871;83;20990;-80
2022/12/03 03:52:34;;;;;;;82.55;38.40;;;;;;;-1.54;100.00;98755.16;1678898;84;21510;-77
2022/12/03 03:55:00;;;;;;;83.05;40.73;;;;;;;-1.53;100.00;98758.63;1710563;83;20866;-80
2022/12/03 03:57:26;;;;;;;98.92;45.30;;;;;;;-1.58;100.00;98761.83;1706956;83;21524;-77
2022/12/03 03:59:51;;;;;;;89.13;39.35;;;;;;;-1.63;100.00;98760.22;1710870;83;21019;-77
2022/12/03 04:02:22;;;;;;;83.35;38.60;;;;;;;-1.65;100.00;98750.78;1712350;83;20959;-80
2022/12/03 04:04:48;;;;;;;83.30;38.28;;;;;;;-1.68;100.00;98756.48;1708474;83;21177;-77
2022/12/03 04:07:15;;;;;;;88.78;38.45;;;;;;;-1.69;100.00;98760.97;1708805;83;20927;-77
2022/12/03 04:09:40;;;;;;;82.40;36.17;;;;;;;-1.74;100.00;98754.04;1713418;83;21035;-80
2022/12/03 04:14:50;;;;;;;92.70;40.83;;;;;;;-1.73;100.00;98756.50;1713397;83;21020;-80
2022/12/03 04:17:16;;;;;;;87.05;39.42;;;;;;;-1.72;100.00;98762.14;1713432;83;21904;-77
2022/12/03 04:19:42;;;;;;;84.90;38.67;;;;;;;-1.75;100.00;98759.03;1713291;83;20959;-77
2022/12/03 04:28:47;;;;;;;94.67;40.95;;;;;;;-1.79;100.00;98758.59;1713393;83;20971;-77
2022/12/03 04:30:05;;;;;;;111.75;46.23;;;;;;;-1.84;100.00;98760.13;1705874;83;21102;-80
2022/12/03 04:38:01;;;;;;;87.17;37.78;;;;;;;-1.94;100.00;98755.09;1688027;85;20997;-80
2022/12/03 04:43:11;;;;;;;74.95;35.90;;;;;;;-2.07;100.00;98777.45;1705171;83;21274;-77
2022/12/03 04:45:37;;;;;;;78.83;35.83;;;;;;;-2.10;100.00;98775.98;1742886;82;21562;-76
2022/12/03 04:48:04;;;;;;;81.55;34.27;;;;;;;-2.15;100.00;98771.70;1716716;83;20889;-77
2022/12/03 04:50:30;;;;;;;99.52;41.63;;;;;;;-2.18;100.00;98772.59;1716667;83;21059;-79
2022/12/03 04:52:55;;;;;;;79.45;33.45;;;;;;;-2.23;100.00;98769.13;1743191;82;21554;-80
2022/12/03 04:55:21;;;;;;;125.00;51.45;;;;;;;-2.31;100.00;98767.88;1716725;83;21061;-77
2022/12/03 04:57:47;;;;;;;130.50;52.17;;;;;;;-2.34;100.00;98772.22;1716640;83;20846;-76
2022/12/03 05:00:15;;;;;;;125.42;52.90;;;;;;;-2.38;100.00;98761.15;1716720;83;20893;-77
2022/12/03 05:02:41;;;;;;;120.15;53.90;;;;;;;-2.40;100.00;98757.83;1688374;83;21474;-76
2022/12/03 05:05:08;;;;;;;131.85;57.80;;;;;;;-2.43;100.00;98757.37;1688009;85;20925;-79
2022/12/03 05:07:34;;;;;;;122.15;53.83;;;;;;;-2.47;100.00;98756.09;1707900;83;21975;-80
2022/12/03 05:10:00;;;;;;;110.42;49.75;;;;;;;-2.46;100.00;98760.39;1707754;84;20878;-79
2022/12/03 05:12:26;;;;;;;118.25;53.80;;;;;;;-2.44;100.00;98763.69;1707787;83;22428;-79
2022/12/03 05:14:52;;;;;;;124.42;55.43;;;;;;;-2.43;100.00;98769.31;1707782;83;20886;-77
2022/12/03 05:17:18;;;;;;;109.95;46.48;;;;;;;-2.42;100.00;98763.81;1707688;83;21568;-79
2022/12/03 05:22:28;;;;;;;96.20;43.23;;;;;;;-2.44;100.00;98768.48;1707714;83;21007;-77
2022/12/03 05:24:54;;;;;;;93.35;42.50;;;;;;;-2.47;100.00;98776.82;1707827;83;20909;-76
2022/12/03 05:27:24;;;;;;;87.17;40.88;;;;;;;-2.52;100.00;98776.52;1707731;83;21492;-76
2022/12/03 05:29:48;;;;;;;89.47;41.08;;;;;;;-2.61;100.00;98782.38;1710930;82;20962;-79
2022/12/03 05:32:14;;;;;;;90.53;36.58;;;;;;;-2.67;100.00;98775.13;1707053;84;21076;-79
2022/12/03 05:34:40;;;;;;;83.85;41.73;;;;;;;-2.74;100.00;98772.84;1711062;83;21025;-77
2022/12/03 05:37:05;;;;;;;86.90;40.70;;;;;;;-2.76;100.00;98767.40;1706881;83;20917;-80
2022/12/03 05:39:31;;;;;;;99.15;44.70;;;;;;;-2.78;100.00;98774.72;1710958;83;21516;-79
2022/12/03 05:44:43;;;;;;;89.58;41.98;;;;;;;-2.79;100.00;98775.72;1592405;89;21859;-77
2022/12/03 05:47:09;;;;;;;86.45;41.55;;;;;;;-2.85;100.00;98775.41;1592077;90;21070;-76
2022/12/03 05:49:35;;;;;;;90.42;42.10;;;;;;;-2.88;100.00;98768.31;1631066;83;21045;-77
2022/12/03 05:52:01;;;;;;;88.90;42.40;;;;;;;-2.93;100.00;98774.14;1706803;84;20909;-80
2022/12/03 05:54:27;;;;;;;92.02;43.08;;;;;;;-2.95;100.00;98766.86;1710906;83;21113;-77
2022/12/03 05:56:53;;;;;;;95.32;44.70;;;;;;;-2.98;100.00;98765.07;1706661;83;21131;-77
2022/12/03 05:59:19;;;;;;;106.17;47.45;;;;;;;-3.02;100.00;98768.55;1710941;83;21695;-79
2022/12/03 06:01:44;;;;;;;97.15;46.98;;;;;;;-3.05;100.00;98764.94;1712261;83;20896;-77
2022/12/03 06:04:10;;;;;;;104.55;47.60;;;;;;;-3.07;100.00;98770.09;1715958;83;21560;-76
2022/12/03 06:06:36;;;;;;;109.57;48.17;;;;;;;-3.09;100.00;98765.45;1716017;83;20962;-79
2022/12/03 06:09:02;;;;;;;103.05;47.75;;;;;;;-3.10;100.00;98766.45;1716058;83;21137;-80
2022/12/03 06:11:29;;;;;;;96.47;45.38;;;;;;;-3.09;100.00;98768.10;1715787;83;20993;-77
2022/12/03 06:13:55;;;;;;;94.97;42.08;;;;;;;-3.12;100.00;98767.45;1715644;83;20966;-79
2022/12/03 06:16:21;;;;;;;92.10;42.27;;;;;;;-3.13;100.00;98771.61;1715887;83;20883;-77
2022/12/03 06:18:46;;;;;;;95.17;41.80;;;;;;;-3.15;100.00;98765.16;1715838;83;21699;-79
2022/12/03 06:21:12;;;;;;;100.33;41.00;;;;;;;-3.15;100.00;98771.79;1715978;83;21128;-76
2022/12/03 06:23:43;;;;;;;91.40;38.70;;;;;;;-3.14;100.00;98768.64;1715898;83;21999;-77
2022/12/03 06:26:06;;;;;;;104.23;43.60;;;;;;;-3.17;100.00;98767.64;1715153;83;21006;-79
2022/12/03 06:28:32;;;;;;;91.37;40.25;;;;;;;-3.17;100.00;98773.77;1715929;83;20961;-79
2022/12/03 06:30:58;;;;;;;100.65;45.25;;;;;;;-3.14;100.00;98777.42;1710313;83;20973;-80
2022/12/03 06:33:24;;;;;;;104.30;47.38;;;;;;;-3.15;100.00;98781.07;1710888;83;21085;-79
2022/12/03 06:35:50;;;;;;;99.75;43.45;;;;;;;-3.20;100.00;98780.75;1706809;84;20949;-77
2022/12/03 06:38:16;;;;;;;105.72;43.45;;;;;;;-3.21;100.00;98780.94;1710666;83;21013;-79
2022/12/03 06:40:42;;;;;;;106.37;43.38;;;;;;;-3.25;100.00;98776.45;1706778;83;20898;-76
2022/12/03 06:43:08;;;;;;;113.12;50.10;;;;;;;-3.31;100.00;98777.67;1711020;83;21675;-80
2022/12/03 06:45:34;;;;;;;117.17;50.78;;;;;;;-3.35;100.00;98775.02;1706969;84;20887;-80
2022/12/03 06:47:59;;;;;;;128.25;50.52;;;;;;;-3.39;100.00;98790.95;1710862;83;21547;-79
2022/12/03 06:50:25;;;;;;;128.80;51.33;;;;;;;-3.44;100.00;98787.48;1707110;83;20984;-77
2022/12/03 06:52:51;;;;;;;98.03;45.83;;;;;;;-3.46;100.00;98788.98;1710924;83;21556;-76
2022/12/03 06:55:17;;;;;;;110.78;49.30;;;;;;;-3.45;100.00;98784.51;1707109;83;20922;-77
2022/12/03 06:57:43;;;;;;;92.82;38.98;;;;;;;-3.43;100.00;98795.76;1710925;83;21874;-76
2022/12/03 07:00:10;;;;;;;99.28;44.95;;;;;;;-3.43;100.00;98804.53;1706896;83;20890;-76
2022/12/03 07:02:36;;;;;;;102.90;39.27;;;;;;;-3.47;100.00;98797.94;1712431;83;20989;-79
2022/12/03 07:05:03;;;;;;;106.58;44.93;;;;;;;-3.48;100.00;98803.41;1742931;82;20868;-79
2022/12/03 07:07:28;;;;;;;117.82;51.42;;;;;;;-3.47;100.00;98805.88;1716480;83;20970;-77
2022/12/03 07:09:54;;;;;;;214.60;98.97;;;;;;;-3.51;100.00;98811.68;1742851;82;21878;-79
2022/12/03 07:12:20;;;;;;;157.85;72.82;;;;;;;-3.48;100.00;98807.39;1742538;82;20843;-79
2022/12/03 07:14:46;;;;;;;659.22;329.77;;;;;;;-3.43;100.00;98812.98;1743146;82;21497;-76
2022/12/03 07:17:12;;;;;;;609.30;340.82;;;;;;;-3.43;100.00;98814.30;1742663;82;20950;-80
2022/12/03 07:19:38;;;;;;;220.15;105.17;;;;;;;-3.44;100.00;98806.86;1742945;82;21648;-77
2022/12/03 07:22:04;;;;;;;143.28;66.62;;;;;;;-3.40;100.00;98815.31;1742757;82;21127;-79
2022/12/03 07:24:30;;;;;;;166.77;79.35;;;;;;;-3.33;100.00;98810.98;1742642;82;20995;-77
2022/12/03 07:26:56;;;;;;;153.15;68.87;;;;;;;-3.34;100.00;98806.65;1742636;82;20961;-79
2022/12/03 07:29:22;;;;;;;131.72;60.95;;;;;;;-3.29;100.00;98804.33;1742729;82;20970;-79
2022/12/03 07:31:48;;;;;;;119.62;49.55;;;;;;;-3.30;100.00;98796.05;1725864;82;21609;-77
2022/12/03 07:34:14;;;;;;;153.18;75.87;;;;;;;-3.22;100.00;98790.71;1714066;82;21140;-75
2022/12/03 07:36:40;;;;;;;131.90;56.58;;;;;;;-3.17;100.00;98791.00;1713317;83;20977;-76
2022/12/03 07:39:06;;;;;;;111.40;48.02;;;;;;;-3.18;100.00;98785.88;1713123;83;21030;-80
2022/12/03 07:41:32;;;;;;;129.60;53.30;;;;;;;-3.12;100.00;98793.14;1713134;83;20906;-77
2022/12/03 07:43:58;;;;;;;111.05;47.43;;;;;;;-3.09;100.00;98790.64;1712564;83;20891;-77
2022/12/03 07:46:24;;;;;;;128.12;49.98;;;;;;;-3.06;100.00;98796.44;1713128;83;21996;-77
2022/12/03 07:48:50;;;;;;;108.03;46.83;;;;;;;-3.02;100.00;98797.73;1713033;83;20970;-77
2022/12/03 07:51:15;;;;;;;105.72;40.98;;;;;;;-2.99;100.00;98799.20;1724073;82;20934;-79
2022/12/03 07:53:41;;;;;;;103.02;43.33;;;;;;;-2.94;100.00;98794.20;1725657;80;20830;-79
2022/12/03 07:56:07;;;;;;;100.30;43.50;;;;;;;-2.92;100.00;98796.17;1714792;83;21015;-77
2022/12/03 07:58:33;;;;;;;102.15;49.50;;;;;;;-2.87;100.00;98794.66;1713831;82;21703;-77
2022/12/03 08:00:59;;;;;;;105.05;46.45;;;;;;;-2.85;100.00;98782.04;1708940;82;20893;-77
2022/12/03 08:03:25;;;;;;;114.37;50.30;;;;;;;-2.81;100.00;98785.69;1682953;85;21718;-77
2022/12/03 08:05:51;;;;;;;106.17;45.85;;;;;;;-2.72;100.00;98788.11;1739408;82;20863;-80
2022/12/03 08:08:17;;;;;;;121.33;52.30;;;;;;;-2.71;100.00;98791.08;1742540;82;20859;-79
2022/12/03 08:10:43;;;;;;;115.42;52.17;;;;;;;-2.68;100.00;98792.55;1705333;83;21225;-80
2022/12/03 08:13:16;;;;;;;117.40;52.43;;;;;;;-2.65;100.00;98789.53;1700876;84;21053;-77
2022/12/03 08:15:41;;;;;;;126.45;58.68;;;;;;;-2.60;100.00;98788.02;1700633;83;21078;-77
2022/12/03 08:18:20;;;;;;;122.35;56.58;;;;;;;-2.55;100.00;98786.17;1700777;84;20853;-80
2022/12/03 08:20:48;;;;;;;134.12;62.17;;;;;;;-2.51;100.00;98784.80;1720881;83;21034;-77
2022/12/03 08:23:22;;;;;;;121.97;54.73;;;;;;;-2.42;100.00;98785.56;1740687;81;21862;-77
2022/12/03 08:25:49;;;;;;;116.50;54.88;;;;;;;-2.38;100.00;98789.02;1745519;82;21010;-77
2022/12/03 08:28:18;;;;;;;122.25;55.75;;;;;;;-2.31;100.00;98791.29;1747465;82;21128;-80
2022/12/03 08:30:48;;;;;;;124.62;54.40;;;;;;;-2.21;100.00;98784.91;1717613;82;21014;-77
2022/12/03 08:33:26;;;;;;;128.85;56.35;;;;;;;-2.11;100.00;98785.47;1710675;83;21457;-77
2022/12/03 08:35:52;;;;;;;121.30;53.92;;;;;;;-2.07;100.00;98784.91;1712853;82;21163;-77
2022/12/03 08:38:22;;;;;;;112.20;49.73;;;;;;;-2.02;100.00;98778.57;1745846;82;21559;-76
2022/12/03 08:40:50;;;;;;;107.85;48.08;;;;;;;-1.93;100.00;98777.98;1742084;82;21013;-77
2022/12/03 08:43:21;;;;;;;122.07;51.70;;;;;;;-1.88;100.00;98781.41;1702294;84;21008;-79
2022/12/03 08:45:49;;;;;;;122.17;52.17;;;;;;;-1.81;100.00;98787.15;1689204;84;20981;-77
2022/12/03 08:48:33;;;;;;;109.20;48.15;;;;;;;-1.77;100.00;98784.47;1683164;85;21895;-77
2022/12/03 08:51:23;;;;;;;118.40;49.20;;;;;;;-1.67;100.00;98782.86;1713405;83;21039;-80
2022/12/03 08:53:55;;;;;;;103.10;44.30;;;;;;;-1.57;100.00;98786.07;1682428;85;20978;-77
2022/12/03 08:56:24;;;;;;;102.12;45.28;;;;;;;-1.54;100.00;98779.55;1736009;82;21427;-79
2022/12/03 08:59:17;;;;;;;115.92;53.92;;;;;;;-1.51;100.00;98779.20;1726544;82;21009;-80
2022/12/03 09:01:44;;;;;;;121.62;56.45;;;;;;;-1.44;100.00;98778.29;1721184;82;21160;-79
2022/12/03 09:04:37;;;;;;;103.32;44.67;;;;;;;-1.33;100.00;98784.14;1713237;82;21051;-77
2022/12/03 09:07:03;;;;;;;97.70;48.78;;;;;;;-1.30;100.00;98784.58;1731469;82;20981;-80
2022/12/03 09:09:29;;;;;;;102.58;46.48;;;;;;;-1.22;100.00;98778.34;1713347;83;20925;-77
2022/12/03 09:11:55;;;;;;;108.92;49.83;;;;;;;-1.15;100.00;98779.25;1713332;83;21297;-80
2022/12/03 09:14:21;;;;;;;105.05;48.98;;;;;;;-1.09;100.00;98777.69;1726183;82;21754;-77
2022/12/03 09:16:54;;;;;;;106.85;48.83;;;;;;;-1.01;100.00;98783.73;1741126;82;20942;-80
2022/12/03 09:19:18;;;;;;;102.02;46.00;;;;;;;-0.93;100.00;98788.12;1706651;82;21003;-77
2022/12/03 09:21:44;;;;;;;110.25;51.75;;;;;;;-0.86;100.00;98780.50;1716016;83;20962;-80
2022/12/03 09:24:10;;;;;;;100.97;51.18;;;;;;;-0.80;100.00;98778.94;1721668;82;21643;-80
2022/12/03 09:26:36;;;;;;;111.30;49.85;;;;;;;-0.71;100.00;98776.47;1745965;82;21345;-77
2022/12/03 09:29:01;;;;;;;102.62;49.55;;;;;;;-0.64;100.00;98772.55;1722651;82;21579;-77
2022/12/03 09:31:27;;;;;;;117.90;52.00;;;;;;;-0.54;100.00;98776.22;1690951;83;20873;-77
2022/12/03 09:33:53;;;;;;;105.95;50.88;;;;;;;-0.47;100.00;98775.79;1698458;83;21782;-80
2022/12/03 09:36:19;;;;;;;115.97;55.40;;;;;;;-0.37;100.00;98777.61;1686143;85;21498;-77
2022/12/03 09:38:45;;;;;;;110.48;52.15;;;;;;;-0.31;100.00;98768.36;1685989;85;21838;-77
2022/12/03 09:41:11;;;;;;;108.03;53.02;;;;;;;-0.26;100.00;98770.94;1745903;82;21041;-80
2022/12/03 09:43:37;;;;;;;106.87;52.50;;;;;;;-0.18;100.00;98768.96;1745872;82;21610;-80
2022/12/03 09:46:04;;;;;;;104.07;52.45;;;;;;;-0.14;100.00;98772.91;1693561;82;20893;-77
2022/12/03 09:48:30;;;;;;;106.40;50.52;;;;;;;-0.06;100.00;98769.28;1685998;85;21016;-77
2022/12/03 09:50:56;;;;;;;105.75;51.42;;;;;;;0.04;100.00;98770.27;1690832;82;21255;-80
2022/12/03 09:53:24;;;;;;;107.97;50.43;;;;;;;0.10;100.00;98776.98;1700504;82;21572;-77
2022/12/03 09:55:50;;;;;;;109.17;50.33;;;;;;;0.13;100.00;98775.26;1714259;82;21032;-81
2022/12/03 09:58:17;;;;;;;103.25;48.23;;;;;;;0.23;100.00;98773.06;1709013;82;21014;-79
2022/12/03 10:00:47;;;;;;;89.30;43.83;;;;;;;0.31;100.00;98763.27;1689326;83;21172;-80
2022/12/03 10:03:14;;;;;;;99.65;47.25;;;;;;;0.39;100.00;98765.78;1685850;83;21448;-80
2022/12/03 10:05:40;;;;;;;97.70;46.75;;;;;;;0.44;100.00;98758.86;1732580;82;21017;-80
2022/12/03 10:08:09;;;;;;;111.72;49.73;;;;;;;0.49;100.00;98758.25;1745706;82;20997;-77
2022/12/03 10:10:36;;;;;;;87.45;46.00;;;;;;;0.53;100.00;98755.00;1703968;82;21024;-77
2022/12/03 10:13:01;;;;;;;122.20;61.85;;;;;;;0.58;100.00;98758.39;1685753;85;20997;-77
2022/12/03 10:15:28;;;;;;;105.95;51.15;;;;;;;0.53;100.00;98756.85;1695712;83;21177;-77
2022/12/03 10:17:54;;;;;;;99.77;44.90;;;;;;;0.58;100.00;98753.06;1700191;84;20956;-77
2022/12/03 10:20:22;;;;;;;97.40;45.60;;;;;;;0.65;100.00;98753.10;1731417;82;21494;-77
2022/12/03 10:22:48;;;;;;;80.32;37.73;;;;;;;0.64;100.00;98743.45;1742025;80;21001;-77
2022/12/03 10:25:20;;;;;;;99.97;45.80;;;;;;;0.67;100.00;98741.72;1765142;80;20898;-76
2022/12/03 10:27:58;;;;;;;94.32;46.20;;;;;;;0.69;100.00;98737.84;1745735;81;21067;-80
2022/12/03 10:30:27;;;;;;;92.50;45.03;;;;;;;0.68;100.00;98732.69;1717204;82;20986;-80
2022/12/03 10:32:54;;;;;;;101.95;43.10;;;;;;;0.68;100.00;98742.02;1726136;82;21512;-80
2022/12/03 10:35:38;;;;;;;81.80;40.03;;;;;;;0.70;100.00;98746.67;1731284;82;21005;-77
2022/12/03 10:38:21;;;;;;;92.02;42.65;;;;;;;0.67;100.00;98743.87;1746467;82;20990;-80
2022/12/03 10:40:48;;;;;;;96.53;41.92;;;;;;;0.61;100.00;98742.53;1745883;82;21143;-80
2022/12/03 10:43:23;;;;;;;95.40;43.63;;;;;;;0.52;100.00;98748.03;1747247;82;21029;-77
2022/12/03 10:46:11;;;;;;;84.60;40.63;;;;;;;0.47;100.00;98747.78;1734438;82;22230;-77
2022/12/03 10:48:37;;;;;;;102.02;42.33;;;;;;;0.47;100.00;98745.63;1729640;82;21029;-80
2022/12/03 10:51:20;;;;;;;93.33;39.90;;;;;;;0.46;100.00;98743.48;1731709;82;20950;-77
2022/12/03 10:53:47;;;;;;;88.03;41.13;;;;;;;0.39;100.00;98741.28;1717185;82;21128;-80
2022/12/03 10:56:18;;;;;;;89.77;42.15;;;;;;;0.35;100.00;98741.38;1714496;82;21068;-80
2022/12/03 10:58:44;;;;;;;103.17;43.95;;;;;;;0.36;100.00;98739.53;1708029;82;21006;-77
2022/12/03 11:01:17;;;;;;;88.70;40.03;;;;;;;0.38;100.00;98741.48;1696174;82;21012;-80
2022/12/03 11:03:42;;;;;;;83.50;41.02;;;;;;;0.25;100.00;98731.03;1685508;85;21482;-80
2022/12/03 11:06:13;;;;;;;97.08;45.65;;;;;;;0.33;100.00;98735.39;1713298;83;21100;-77
2022/12/03 11:08:40;;;;;;;99.95;46.50;;;;;;;0.31;100.00;98730.77;1714272;83;21505;-77
2022/12/03 11:11:09;;;;;;;98.15;45.23;;;;;;;0.33;100.00;98726.06;1674189;84;21050;-80
2022/12/03 11:13:39;;;;;;;;;;;;;;;0.36;100.00;98728.86;1699450;84;21443;-77
2022/12/03 11:16:06;;;;;;;91.15;41.42;;;;;;;0.30;100.00;98729.13;1700265;83;20165;-80
2022/12/03 11:18:41;;;;;;;102.10;44.25;;;;;;;0.25;100.00;98731.03;1707543;84;21206;-80
2022/12/03 11:21:12;;;;;;;104.55;44.98;;;;;;;0.24;100.00;98730.72;1758678;80;21037;-77
2022/12/03 11:23:47;;;;;;;91.90;43.58;;;;;;;0.17;100.00;98729.03;1745995;80;21018;-77
2022/12/03 11:26:16;;;;;;;99.25;43.80;;;;;;;0.10;100.00;98729.53;1707376;83;21059;-80
2022/12/03 11:28:56;;;;;;;92.95;40.30;;;;;;;0.11;100.00;98731.17;1712839;83;20984;-80
2022/12/03 11:31:38;;;;;;;86.55;38.33;;;;;;;0.09;100.00;98733.22;1709490;83;21297;-77
2022/12/03 11:34:31;;;;;;;101.30;41.48;;;;;;;0.03;100.00;98728.15;1696149;82;21021;-77